createdAt,value
2023-09-26T00:00:24.918Z,8.52
2023-09-26T00:02:54.407Z,9.75
2023-09-26T00:05:22.060Z,9.45
2023-09-26T00:07:52.995Z,8.50
2023-09-26T00:10:20.749Z,8.30
2023-09-26T00:12:48.310Z,8.93
2023-09-26T00:15:15.335Z,8.10
2023-09-26T00:17:42.799Z,7.88
2023-09-26T00:20:33.440Z,7.88
2023-09-26T00:23:00.287Z,7.90
2023-09-26T00:25:27.672Z,8.35
2023-09-26T00:27:55.082Z,8.15
2023-09-26T00:30:22.717Z,8.85
2023-09-26T00:32:49.908Z,8.80
2023-09-26T00:35:17.068Z,8.70
2023-09-26T00:37:48.808Z,9.23
2023-09-26T00:40:17.447Z,9.90
2023-09-26T00:42:45.248Z,9.18
2023-09-26T00:45:13.344Z,9.05
2023-09-26T00:47:42.891Z,9.70
2023-09-26T00:50:13.224Z,9.73
2023-09-26T00:52:46.139Z,9.23
2023-09-26T00:55:15.319Z,9.30
2023-09-26T00:57:42.530Z,9.27
2023-09-26T01:00:14.329Z,9.35
2023-09-26T01:02:41.379Z,9.65
2023-09-26T01:05:09.714Z,9.68
2023-09-26T01:07:36.961Z,9.68
2023-09-26T01:10:05.024Z,9.63
2023-09-26T01:12:32.071Z,9.20
2023-09-26T01:14:58.897Z,9.20
2023-09-26T01:17:25.889Z,9.30
2023-09-26T01:19:52.731Z,9.23
2023-09-26T01:22:20.290Z,9.32
2023-09-26T01:24:47.240Z,9.18
2023-09-26T01:27:14.117Z,9.10
2023-09-26T01:29:41.028Z,9.38
2023-09-26T01:32:07.899Z,9.40
2023-09-26T01:34:34.793Z,9.30
2023-09-26T01:37:01.708Z,10.20
2023-09-26T01:39:28.626Z,9.30
2023-09-26T01:41:55.530Z,9.57
2023-09-26T01:44:22.329Z,9.40
2023-09-26T01:46:49.631Z,10.02
2023-09-26T01:49:16.705Z,9.75
2023-09-26T01:51:47.234Z,9.80
2023-09-26T01:54:14.089Z,10.07
2023-09-26T01:56:40.892Z,10.75
2023-09-26T01:59:08.286Z,9.80
2023-09-26T02:01:35.326Z,10.13
2023-09-26T02:04:02.368Z,10.85
2023-09-26T02:06:29.428Z,10.70
2023-09-26T02:08:56.375Z,11.10
2023-09-26T02:11:23.325Z,11.18
2023-09-26T02:13:50.467Z,10.98
2023-09-26T02:16:17.760Z,10.73
2023-09-26T02:18:44.664Z,11.30
2023-09-26T02:21:18.440Z,11.25
2023-09-26T02:23:45.245Z,10.80
2023-09-26T02:26:12.092Z,10.90
2023-09-26T02:28:38.979Z,11.15
2023-09-26T02:31:05.844Z,11.88
2023-09-26T02:33:33.314Z,11.82
2023-09-26T02:36:00.137Z,11.18
2023-09-26T02:38:27.165Z,11.43
2023-09-26T02:40:53.999Z,11.48
2023-09-26T02:43:21.105Z,11.85
2023-09-26T02:45:48.151Z,11.15
2023-09-26T02:48:15.081Z,11.82
2023-09-26T02:50:41.919Z,11.43
2023-09-26T02:53:08.730Z,11.75
2023-09-26T02:55:40.345Z,11.10
2023-09-26T02:58:07.784Z,10.95
2023-09-26T03:00:34.732Z,11.90
2023-09-26T03:03:02.058Z,11.25
2023-09-26T03:05:29.465Z,12.90
2023-09-26T03:07:56.296Z,11.95
2023-09-26T03:10:23.915Z,11.52
2023-09-26T03:12:50.907Z,12.25
2023-09-26T03:15:17.805Z,12.40
2023-09-26T03:17:45.047Z,12.80
2023-09-26T03:20:16.768Z,11.65
2023-09-26T03:22:44.249Z,11.05
2023-09-26T03:25:11.820Z,10.75
2023-09-26T03:27:38.754Z,11.32
2023-09-26T03:30:06.104Z,10.85
2023-09-26T03:32:33.056Z,11.52
2023-09-26T03:34:59.936Z,11.63
2023-09-26T03:37:27.298Z,11.63
2023-09-26T03:39:54.206Z,11.93
2023-09-26T03:42:21.286Z,11.90
2023-09-26T03:44:48.267Z,12.23
2023-09-26T03:47:15.638Z,12.90
2023-09-26T03:49:42.465Z,11.88
2023-09-26T03:52:09.345Z,11.80
2023-09-26T03:54:36.700Z,12.43
2023-09-26T03:57:05.931Z,11.95
2023-09-26T03:59:32.864Z,12.68
2023-09-26T04:01:59.718Z,12.90
2023-09-26T04:04:26.840Z,12.35
2023-09-26T04:06:53.846Z,11.20
2023-09-26T04:09:20.712Z,12.13
2023-09-26T04:11:49.798Z,11.32
2023-09-26T04:14:16.599Z,11.57
2023-09-26T04:16:43.383Z,11.43
2023-09-26T04:19:10.458Z,12.02
2023-09-26T04:21:37.448Z,10.73
2023-09-26T04:24:05.901Z,10.48
2023-09-26T04:26:32.856Z,10.05
2023-09-26T04:29:00.601Z,10.02
2023-09-26T04:33:54.838Z,10.38
2023-09-26T04:36:21.828Z,10.95
2023-09-26T04:38:48.735Z,11.48
2023-09-26T04:41:15.861Z,11.88
2023-09-26T04:43:42.864Z,12.68
2023-09-26T04:46:17.627Z,13.07
2023-09-26T04:48:45.879Z,14.27
2023-09-26T04:51:14.935Z,15.73
2023-09-26T04:53:42.784Z,15.70
2023-09-26T04:56:09.899Z,15.75
2023-09-26T04:58:37.305Z,16.10
2023-09-26T05:01:15.011Z,17.50
2023-09-26T05:03:45.843Z,17.20
2023-09-26T05:06:13.814Z,17.58
2023-09-26T05:08:42.003Z,18.92
2023-09-26T05:11:16.535Z,17.70
2023-09-26T05:13:44.856Z,19.85
2023-09-26T05:16:12.580Z,19.13
2023-09-26T05:18:39.771Z,17.77
2023-09-26T05:21:07.741Z,20.30
2023-09-26T05:23:35.010Z,20.10
2023-09-26T05:26:08.940Z,20.52
2023-09-26T05:28:36.147Z,21.33
2023-09-26T05:31:03.443Z,21.30
2023-09-26T05:33:30.548Z,22.83
2023-09-26T05:35:57.557Z,22.52
2023-09-26T05:38:27.036Z,24.08
2023-09-26T05:40:54.319Z,24.33
2023-09-26T05:43:22.433Z,23.13
2023-09-26T05:45:53.477Z,24.30
2023-09-26T05:48:21.237Z,25.17
2023-09-26T05:50:48.232Z,25.60
2023-09-26T05:53:15.122Z,25.77
2023-09-26T05:55:41.983Z,22.83
2023-09-26T05:58:08.886Z,22.88
2023-09-26T06:00:37.620Z,25.10
2023-09-26T06:03:04.723Z,22.52
2023-09-26T06:05:31.860Z,24.30
2023-09-26T06:07:58.888Z,23.67
2023-09-26T06:10:30.434Z,23.55
2023-09-26T06:12:59.777Z,22.33
2023-09-26T06:15:27.158Z,22.88
2023-09-26T06:18:04.147Z,21.55
2023-09-26T06:20:32.114Z,20.20
2023-09-26T06:22:59.633Z,20.25
2023-09-26T06:25:29.523Z,20.45
2023-09-26T06:27:58.953Z,22.25
2023-09-26T06:30:26.859Z,23.50
2023-09-26T06:32:54.161Z,22.40
2023-09-26T06:35:21.322Z,23.35
2023-09-26T06:37:48.308Z,24.33
2023-09-26T06:40:18.233Z,21.42
2023-09-26T06:42:46.608Z,23.02
2023-09-26T06:45:15.237Z,25.13
2023-09-26T06:47:42.065Z,24.10
2023-09-26T06:50:12.222Z,24.85
2023-09-26T06:52:39.419Z,25.75
2023-09-26T06:55:11.849Z,29.08
2023-09-26T06:57:39.157Z,30.25
2023-09-26T07:00:18.334Z,29.50
2023-09-26T07:02:45.481Z,27.50
2023-09-26T07:05:13.439Z,29.83
2023-09-26T07:07:40.455Z,25.60
2023-09-26T07:10:08.586Z,27.23
2023-09-26T07:12:35.471Z,25.73
2023-09-26T07:15:02.406Z,22.40
2023-09-26T07:17:29.265Z,22.23
2023-09-26T07:19:56.104Z,21.65
2023-09-26T07:22:23.678Z,21.55
2023-09-26T07:24:51.060Z,21.60
2023-09-26T07:27:19.585Z,22.75
2023-09-26T07:29:47.987Z,23.80
2023-09-26T07:32:16.016Z,30.95
2023-09-26T07:34:42.938Z,36.97
2023-09-26T07:37:12.279Z,41.05
2023-09-26T07:39:39.241Z,39.75
2023-09-26T07:42:06.418Z,38.88
2023-09-26T07:44:33.800Z,39.90
2023-09-26T07:47:00.786Z,37.00
2023-09-26T07:49:27.994Z,33.83
2023-09-26T07:51:54.946Z,31.52
2023-09-26T07:54:21.895Z,27.63
2023-09-26T07:56:48.813Z,24.52
2023-09-26T07:59:15.972Z,24.13
2023-09-26T08:01:42.991Z,21.90
2023-09-26T08:04:10.465Z,22.08
2023-09-26T08:06:37.566Z,22.52
2023-09-26T08:09:04.906Z,21.33
2023-09-26T08:11:31.828Z,19.67
2023-09-26T08:13:59.017Z,20.33
2023-09-26T08:16:26.555Z,19.13
2023-09-26T08:18:53.542Z,18.38
2023-09-26T08:21:25.324Z,17.30
2023-09-26T08:23:52.843Z,16.92
2023-09-26T08:26:20.714Z,16.17
2023-09-26T08:28:47.628Z,14.68
2023-09-26T08:31:19.341Z,14.15
2023-09-26T08:33:46.633Z,13.93
2023-09-26T08:36:20.386Z,14.07
2023-09-26T08:38:49.356Z,13.98
2023-09-26T08:41:20.416Z,14.20
2023-09-26T08:43:48.172Z,12.65
2023-09-26T08:46:15.141Z,11.65
2023-09-26T08:48:43.785Z,13.80
2023-09-26T08:51:10.798Z,13.40
2023-09-26T08:53:37.926Z,13.55
2023-09-26T08:56:05.856Z,12.45
2023-09-26T08:58:34.236Z,11.93
2023-09-26T09:01:01.190Z,11.65
2023-09-26T09:03:28.132Z,11.02
2023-09-26T09:05:56.268Z,10.27
2023-09-26T09:08:24.270Z,9.93
2023-09-26T09:10:55.970Z,10.90
2023-09-26T09:13:31.532Z,11.00
2023-09-26T09:16:19.301Z,9.63
2023-09-26T09:19:08.019Z,9.85
2023-09-26T09:21:35.877Z,8.70
2023-09-26T09:24:07.732Z,8.15
2023-09-26T09:26:36.802Z,8.32
2023-09-26T09:29:29.682Z,8.55
2023-09-26T09:31:58.171Z,7.55
2023-09-26T09:34:27.201Z,8.57
2023-09-26T09:36:56.678Z,8.40
2023-09-26T09:39:24.262Z,7.75
2023-09-26T09:41:58.631Z,8.07
2023-09-26T09:44:26.458Z,8.63
2023-09-26T09:46:58.417Z,7.10
2023-09-26T09:49:32.686Z,7.00
2023-09-26T09:52:04.062Z,6.78
2023-09-26T09:54:35.139Z,6.97
2023-09-26T09:57:08.407Z,6.95
2023-09-26T09:59:40.512Z,7.20
2023-09-26T10:02:07.582Z,7.57
2023-09-26T10:04:36.986Z,7.22
2023-09-26T10:07:03.891Z,7.15
2023-09-26T10:09:34.031Z,6.85
2023-09-26T10:12:01.831Z,7.40
2023-09-26T10:14:32.074Z,7.28
2023-09-26T10:17:00.981Z,6.70
2023-09-26T10:19:43.264Z,6.57
2023-09-26T10:22:18.439Z,6.72
2023-09-26T10:24:55.473Z,7.53
2023-09-26T10:27:59.378Z,6.53
2023-09-26T10:30:29.252Z,6.13
2023-09-26T10:32:56.594Z,6.50
2023-09-26T10:38:21.120Z,6.80
2023-09-26T10:40:49.431Z,5.85
2023-09-26T10:45:47.589Z,5.85
2023-09-26T10:51:09.077Z,5.88
2023-09-26T10:53:36.511Z,5.20
2023-09-26T10:56:04.651Z,5.35
2023-09-26T10:58:34.929Z,6.15
2023-09-26T11:01:02.021Z,5.20
2023-09-26T11:03:32.197Z,5.03
2023-09-26T11:08:46.465Z,4.68
2023-09-26T11:11:13.742Z,5.28
2023-09-26T11:13:40.968Z,5.20
2023-09-26T11:16:08.123Z,5.20
2023-09-26T11:18:35.117Z,5.40
2023-09-26T11:21:23.897Z,6.40
2023-09-26T11:23:53.258Z,6.32
2023-09-26T11:26:21.338Z,5.40
2023-09-26T11:28:48.508Z,6.03
2023-09-26T11:31:16.736Z,4.85
2023-09-26T11:33:44.845Z,5.22
2023-09-26T11:36:12.122Z,5.28
2023-09-26T11:38:49.452Z,6.22
2023-09-26T11:41:16.584Z,6.55
2023-09-26T11:43:44.877Z,5.22
2023-09-26T11:46:11.934Z,5.32
2023-09-26T11:48:38.964Z,5.32
2023-09-26T11:51:05.863Z,4.90
2023-09-26T11:53:33.719Z,5.53
2023-09-26T11:56:01.143Z,5.90
2023-09-26T11:58:28.116Z,5.78
2023-09-26T12:00:54.999Z,6.60
2023-09-26T12:03:21.942Z,5.60
2023-09-26T12:05:48.871Z,5.75
2023-09-26T12:08:15.835Z,5.82
2023-09-26T12:10:44.731Z,5.45
2023-09-26T12:13:12.410Z,6.43
2023-09-26T12:15:39.582Z,5.82
2023-09-26T12:18:06.562Z,5.50
2023-09-26T12:20:33.537Z,5.32
2023-09-26T12:23:01.259Z,5.05
2023-09-26T12:25:31.944Z,5.50
2023-09-26T12:27:58.806Z,5.70
2023-09-26T12:30:25.698Z,6.22
2023-09-26T12:32:52.652Z,5.25
2023-09-26T12:35:20.282Z,6.57
2023-09-26T12:37:47.569Z,5.55
2023-09-26T12:40:15.249Z,6.47
2023-09-26T12:42:43.175Z,5.13
2023-09-26T12:45:11.209Z,5.68
2023-09-26T12:47:39.030Z,5.55
2023-09-26T12:50:11.069Z,5.60
2023-09-26T12:52:40.247Z,5.05
2023-09-26T12:55:08.606Z,5.60
2023-09-26T12:57:36.020Z,5.93
2023-09-26T13:00:08.124Z,5.80
2023-09-26T13:02:35.476Z,5.15
2023-09-26T13:05:03.639Z,5.00
2023-09-26T13:07:31.086Z,5.07
2023-09-26T13:09:58.140Z,5.07
2023-09-26T13:12:25.594Z,4.60
2023-09-26T13:14:52.776Z,5.10
2023-09-26T13:17:20.050Z,5.40
2023-09-26T13:19:47.766Z,4.68
2023-09-26T13:22:15.339Z,5.00
2023-09-26T13:24:43.498Z,5.72
2023-09-26T13:27:10.566Z,4.60
2023-09-26T13:32:04.939Z,5.18
2023-09-26T13:34:32.215Z,5.35
2023-09-26T13:36:59.555Z,5.28
2023-09-26T13:39:27.678Z,4.40
2023-09-26T13:41:54.735Z,4.53
2023-09-26T13:44:22.100Z,4.88
2023-09-26T13:46:49.681Z,4.15
2023-09-26T13:49:17.080Z,4.75
2023-09-26T13:51:48.012Z,4.30
2023-09-26T13:54:15.444Z,4.43
2023-09-26T13:56:44.509Z,4.35
2023-09-26T13:59:11.950Z,4.70
2023-09-26T14:01:39.596Z,4.30
2023-09-26T14:04:07.252Z,4.32
2023-09-26T14:06:34.880Z,4.38
2023-09-26T14:09:02.420Z,5.03
2023-09-26T14:11:30.771Z,4.38
2023-09-26T14:13:57.786Z,4.32
2023-09-26T14:16:26.313Z,4.35
2023-09-26T14:18:54.428Z,4.57
2023-09-26T14:21:22.835Z,4.75
2023-09-26T14:23:50.336Z,5.00
2023-09-26T14:26:21.440Z,4.97
2023-09-26T14:28:49.213Z,4.57
2023-09-26T14:31:22.013Z,4.47
2023-09-26T14:33:49.544Z,4.25
2023-09-26T14:36:16.849Z,4.40
2023-09-26T14:38:43.797Z,4.57
2023-09-26T14:41:11.492Z,4.50
2023-09-26T14:43:38.936Z,4.25
2023-09-26T14:46:06.745Z,4.30
2023-09-26T14:48:33.700Z,4.43
2023-09-26T14:51:00.921Z,4.07
2023-09-26T14:53:28.094Z,4.03
2023-09-26T14:55:55.303Z,3.60
2023-09-26T14:58:22.297Z,3.80
2023-09-26T15:00:49.268Z,4.32
2023-09-26T15:03:17.936Z,3.63
2023-09-26T15:05:45.198Z,3.88
2023-09-26T15:08:12.728Z,4.10
2023-09-26T15:10:39.865Z,4.00
2023-09-26T15:13:08.019Z,3.80
2023-09-26T15:15:34.921Z,4.07
2023-09-26T15:18:02.004Z,4.35
2023-09-26T15:20:28.936Z,3.72
2023-09-26T15:22:56.465Z,4.28
2023-09-26T15:25:24.981Z,4.10
2023-09-26T15:27:51.945Z,3.95
2023-09-26T15:30:18.865Z,4.43
2023-09-26T15:32:46.130Z,4.30
2023-09-26T15:35:13.388Z,4.30
2023-09-26T15:37:40.452Z,3.70
2023-09-26T15:40:07.939Z,3.78
2023-09-26T15:42:35.362Z,3.80
2023-09-26T15:45:04.020Z,3.78
2023-09-26T15:47:31.126Z,4.00
2023-09-26T15:49:58.388Z,3.63
2023-09-26T15:52:25.357Z,4.10
2023-09-26T15:54:53.260Z,4.03
2023-09-26T15:57:20.236Z,4.00
2023-09-26T15:59:48.707Z,4.43
2023-09-26T16:02:15.933Z,4.03
2023-09-26T16:04:44.002Z,4.05
2023-09-26T16:07:10.995Z,4.22
2023-09-26T16:09:38.084Z,3.60
2023-09-26T16:12:05.285Z,4.07
2023-09-26T16:14:32.224Z,4.03
2023-09-26T16:16:59.138Z,4.40
2023-09-26T16:19:26.083Z,4.13
2023-09-26T16:21:53.261Z,4.47
2023-09-26T16:24:20.276Z,4.38
2023-09-26T16:26:47.217Z,4.00
2023-09-26T16:29:14.186Z,4.80
2023-09-26T16:31:41.183Z,4.63
2023-09-26T16:34:08.064Z,4.28
2023-09-26T16:36:34.950Z,4.85
2023-09-26T16:39:01.878Z,4.45
2023-09-26T16:41:28.786Z,4.80
2023-09-26T16:43:55.821Z,5.00
2023-09-26T16:46:22.735Z,5.05
2023-09-26T16:48:49.690Z,5.25
2023-09-26T16:51:16.692Z,5.38
2023-09-26T16:53:53.421Z,5.28
2023-09-26T16:56:20.432Z,6.55
2023-09-26T16:58:47.416Z,5.22
2023-09-26T17:01:14.612Z,4.95
2023-09-26T17:03:41.722Z,5.10
2023-09-26T17:06:09.502Z,5.22
2023-09-26T17:08:37.002Z,5.93
2023-09-26T17:11:05.701Z,5.88
2023-09-26T17:13:36.804Z,5.80
2023-09-26T17:16:04.102Z,6.00
2023-09-26T17:18:31.509Z,6.70
2023-09-26T17:20:59.466Z,6.32
2023-09-26T17:23:26.435Z,6.38
2023-09-26T17:25:53.307Z,6.45
2023-09-26T17:28:20.578Z,6.70
2023-09-26T17:30:47.434Z,6.55
2023-09-26T17:33:17.518Z,6.32
2023-09-26T17:35:44.349Z,7.18
2023-09-26T17:38:11.663Z,6.60
2023-09-26T17:40:40.706Z,6.18
2023-09-26T17:43:07.592Z,6.60
2023-09-26T17:45:34.761Z,6.28
2023-09-26T17:48:01.684Z,6.95
2023-09-26T17:50:28.619Z,7.03
2023-09-26T17:52:55.578Z,7.15
2023-09-26T17:55:22.447Z,7.85
2023-09-26T17:57:49.905Z,7.75
2023-09-26T18:00:17.110Z,7.40
2023-09-26T18:02:44.078Z,7.97
2023-09-26T18:05:12.275Z,7.60
2023-09-26T18:07:40.842Z,7.68
2023-09-26T18:10:09.148Z,7.32
2023-09-26T18:12:36.293Z,7.13
2023-09-26T18:15:03.338Z,9.38
2023-09-26T18:17:30.597Z,8.43
2023-09-26T18:20:03.493Z,7.40
2023-09-26T18:22:30.412Z,7.85
2023-09-26T18:24:57.268Z,8.07
2023-09-26T18:27:24.058Z,7.85
2023-09-26T18:29:51.014Z,9.27
2023-09-26T18:32:17.996Z,8.60
2023-09-26T18:34:45.266Z,8.90
2023-09-26T18:37:12.757Z,9.75
2023-09-26T18:39:41.132Z,9.50
2023-09-26T18:42:08.540Z,9.93
2023-09-26T18:44:38.605Z,9.68
2023-09-26T18:47:06.061Z,9.52
2023-09-26T18:49:33.130Z,8.80
2023-09-26T18:52:03.353Z,8.65
2023-09-26T18:54:30.731Z,9.55
2023-09-26T18:56:58.694Z,9.02
2023-09-26T18:59:27.301Z,8.77
2023-09-26T19:01:54.848Z,9.07
2023-09-26T19:04:22.489Z,9.40
2023-09-26T19:06:49.939Z,9.23
2023-09-26T19:09:21.438Z,8.45
2023-09-26T19:11:49.601Z,9.93
2023-09-26T19:14:16.993Z,9.68
2023-09-26T19:16:47.022Z,9.30
2023-09-26T19:19:14.311Z,10.07
2023-09-26T19:21:42.035Z,9.43
2023-09-26T19:24:14.054Z,9.77
2023-09-26T19:26:44.442Z,9.05
2023-09-26T19:29:11.456Z,8.82
2023-09-26T19:31:40.433Z,9.27
2023-09-26T19:34:08.412Z,8.77
2023-09-26T19:36:35.586Z,9.23
2023-09-26T19:39:03.077Z,9.68
2023-09-26T19:41:30.244Z,9.80
2023-09-26T19:43:57.210Z,9.57
2023-09-26T19:46:26.477Z,10.07
2023-09-26T19:48:54.579Z,10.30
2023-09-26T19:51:24.649Z,9.93
2023-09-26T19:53:52.230Z,10.10
2023-09-26T19:56:19.309Z,10.95
2023-09-26T19:58:46.524Z,10.68
2023-09-26T20:01:13.704Z,10.10
2023-09-26T20:03:40.642Z,9.90
2023-09-26T20:06:07.967Z,9.80
2023-09-26T20:08:35.214Z,10.38
2023-09-26T20:11:02.810Z,10.43
2023-09-26T20:13:29.938Z,10.55
2023-09-26T20:15:57.282Z,10.88
2023-09-26T20:18:24.242Z,10.02
2023-09-26T20:20:51.210Z,10.60
2023-09-26T20:23:19.663Z,11.40
2023-09-26T20:25:47.638Z,9.90
2023-09-26T20:28:14.950Z,10.45
2023-09-26T20:30:41.879Z,10.90
2023-09-26T20:33:10.191Z,10.55
2023-09-26T20:35:37.053Z,11.75
2023-09-26T20:38:04.048Z,10.60
2023-09-26T20:40:31.047Z,11.52
2023-09-26T20:42:57.892Z,11.77
2023-09-26T20:45:27.805Z,11.57
2023-09-26T20:47:54.738Z,10.85
2023-09-26T20:50:22.060Z,12.80
2023-09-26T20:52:49.019Z,12.88
2023-09-26T20:55:16.675Z,11.30
2023-09-26T20:57:43.809Z,12.68
2023-09-26T21:00:11.640Z,11.75
2023-09-26T21:02:38.608Z,11.70
2023-09-26T21:05:06.952Z,12.02
2023-09-26T21:07:34.837Z,12.18
2023-09-26T21:10:01.733Z,11.75
2023-09-26T21:12:28.556Z,12.60
2023-09-26T21:14:55.405Z,11.60
2023-09-26T21:17:22.334Z,12.50
2023-09-26T21:19:49.335Z,12.65
2023-09-26T21:22:16.405Z,12.63
2023-09-26T21:24:43.785Z,12.73
2023-09-26T21:27:10.585Z,12.75
2023-09-26T21:29:37.561Z,11.52
2023-09-26T21:32:07.870Z,12.05
2023-09-26T21:34:35.045Z,12.43
2023-09-26T21:37:02.055Z,12.40
2023-09-26T21:39:28.953Z,12.80
2023-09-26T21:41:59.262Z,12.50
2023-09-26T21:44:27.522Z,13.57
2023-09-26T21:46:54.613Z,13.50
2023-09-26T21:49:21.676Z,12.95
2023-09-26T21:51:49.755Z,13.52
2023-09-26T21:54:16.605Z,14.10
2023-09-26T21:56:44.844Z,12.88
2023-09-26T21:59:12.246Z,13.98
2023-09-26T22:01:39.774Z,13.52
2023-09-26T22:04:07.168Z,13.93
2023-09-26T22:06:34.503Z,13.82
2023-09-26T22:09:02.390Z,14.65
2023-09-26T22:11:30.850Z,13.25
2023-09-26T22:13:58.075Z,13.98
2023-09-26T22:16:25.475Z,13.65
2023-09-26T22:18:52.701Z,14.10
2023-09-26T22:21:20.212Z,13.18
2023-09-26T22:23:48.868Z,13.43
2023-09-26T22:26:15.981Z,13.18
2023-09-26T22:28:43.725Z,13.20
2023-09-26T22:31:10.643Z,13.57
2023-09-26T22:33:40.128Z,13.60
2023-09-26T22:36:07.110Z,12.68
2023-09-26T22:38:33.997Z,13.38
2023-09-26T22:41:07.198Z,13.68
2023-09-26T22:43:34.037Z,13.90
2023-09-26T22:46:04.495Z,14.00
2023-09-26T22:48:31.640Z,13.80
2023-09-26T22:50:58.572Z,13.30
2023-09-26T22:53:26.191Z,13.73
2023-09-26T22:55:54.159Z,14.70
2023-09-26T22:58:21.328Z,13.82
2023-09-26T23:00:48.330Z,12.60
2023-09-26T23:03:16.425Z,11.35
2023-09-26T23:05:44.109Z,11.77
2023-09-26T23:08:11.406Z,11.63
2023-09-26T23:10:41.183Z,12.18
2023-09-26T23:13:09.371Z,11.93
2023-09-26T23:15:36.452Z,11.43
2023-09-26T23:18:03.445Z,12.13
2023-09-26T23:20:38.666Z,12.55
2023-09-26T23:23:06.524Z,11.50
2023-09-26T23:25:34.478Z,12.55
2023-09-26T23:28:01.935Z,13.13
2023-09-26T23:30:30.426Z,12.07
2023-09-26T23:32:57.551Z,12.55
2023-09-26T23:35:24.883Z,12.75
2023-09-26T23:37:52.601Z,12.70
2023-09-26T23:40:22.446Z,13.10
2023-09-26T23:42:49.652Z,12.95
2023-09-26T23:45:16.922Z,12.70
2023-09-26T23:47:43.979Z,12.52
2023-09-26T23:50:20.455Z,14.00
2023-09-26T23:52:47.359Z,12.85
2023-09-26T23:55:14.905Z,12.88
2023-09-26T23:57:42.338Z,13.10
